createdAt,value
2022-11-07T07:53:47.196Z,12.52
2022-11-07T07:56:15.196Z,10.30
2022-11-07T07:58:42.289Z,10.63
2022-11-07T08:01:11.441Z,10.70
2022-11-07T08:03:59.693Z,11.82
2022-11-07T08:06:25.713Z,9.57
2022-11-07T08:08:52.688Z,11.32
2022-11-07T08:11:19.694Z,8.30
2022-11-07T08:13:46.673Z,13.55
2022-11-07T08:16:13.723Z,11.13
2022-11-07T08:18:40.836Z,10.07
2022-11-07T08:21:08.081Z,10.85
2022-11-07T08:23:35.350Z,11.10
2022-11-07T08:26:04.630Z,10.40
2022-11-07T08:28:32.998Z,13.35
2022-11-07T08:31:08.527Z,13.32
2022-11-07T08:33:35.670Z,11.38
2022-11-07T08:36:03.505Z,10.02
2022-11-07T08:38:31.405Z,11.80
2022-11-07T08:40:58.808Z,12.32
2022-11-07T08:43:26.076Z,14.90
2022-11-07T08:45:55.303Z,13.82
2022-11-07T08:48:22.715Z,12.20
2022-11-07T08:50:53.957Z,14.02
2022-11-07T08:53:21.570Z,16.48
2022-11-07T08:55:48.736Z,12.98
2022-11-07T08:58:15.941Z,13.30
2022-11-07T09:00:43.286Z,14.47
2022-11-07T09:05:58.828Z,12.67
2022-11-07T09:08:25.971Z,14.98
2022-11-07T09:10:52.971Z,14.48
2022-11-07T09:13:20.768Z,15.97
2022-11-07T09:15:51.370Z,18.98
2022-11-07T09:18:19.904Z,18.60
2022-11-07T09:20:47.386Z,16.42
2022-11-07T09:23:14.952Z,19.52
2022-11-07T09:25:42.246Z,17.42
2022-11-07T09:28:09.568Z,18.27
2022-11-07T09:30:36.615Z,17.17
2022-11-07T09:33:04.824Z,18.73
2022-11-07T09:35:32.130Z,15.90
2022-11-07T09:37:59.221Z,15.88
2022-11-07T09:40:33.737Z,18.20
2022-11-07T09:43:14.962Z,15.57
2022-11-07T09:45:55.685Z,15.32
2022-11-07T09:48:24.250Z,20.03
2022-11-07T09:50:52.087Z,15.10
2022-11-07T09:53:25.893Z,17.98
2022-11-07T09:56:00.507Z,12.77
2022-11-07T09:58:39.800Z,16.73
2022-11-07T10:01:14.284Z,16.27
2022-11-07T10:03:52.945Z,15.68
2022-11-07T10:06:36.520Z,16.17
2022-11-07T10:09:08.840Z,18.98
2022-11-07T10:11:38.965Z,19.00
2022-11-07T10:14:17.071Z,18.33
2022-11-07T10:17:04.927Z,20.13
2022-11-07T10:19:50.501Z,24.08
2022-11-07T10:22:23.739Z,23.13
2022-11-07T10:25:05.998Z,28.08
2022-11-07T10:27:33.206Z,23.80
2022-11-07T10:30:01.367Z,30.10
2022-11-07T10:32:44.973Z,36.28
2022-11-07T10:35:15.674Z,33.70
2022-11-07T10:37:42.651Z,33.27
2022-11-07T10:40:21.481Z,32.78
2022-11-07T10:42:49.107Z,29.67
2022-11-07T10:45:17.039Z,28.17
2022-11-07T10:47:55.542Z,29.42
2022-11-07T10:50:23.463Z,26.80
2022-11-07T10:52:58.113Z,36.28
2022-11-07T10:55:25.759Z,28.85
2022-11-07T10:57:54.520Z,30.00
2022-11-07T11:00:32.718Z,26.58
2022-11-07T11:03:01.150Z,29.63
2022-11-07T11:05:42.158Z,34.30
2022-11-07T11:08:15.655Z,25.35
2022-11-07T11:10:43.014Z,26.97
2022-11-07T11:13:29.416Z,28.77
2022-11-07T11:16:05.741Z,23.92
2022-11-07T11:18:33.280Z,29.67
2022-11-07T11:21:03.476Z,28.63
2022-11-07T11:23:36.826Z,28.88
2022-11-07T11:26:07.271Z,26.63
2022-11-07T11:31:58.002Z,26.42
2022-11-07T11:34:25.008Z,22.77
2022-11-07T11:36:58.088Z,22.60
2022-11-07T11:39:28.992Z,21.40
2022-11-07T11:41:57.697Z,22.38
2022-11-07T11:44:28.505Z,22.48
2022-11-07T11:47:03.015Z,25.40
2022-11-07T11:49:33.235Z,21.50
2022-11-07T11:52:02.481Z,22.42
2022-11-07T11:54:29.514Z,20.25
2022-11-07T11:57:15.686Z,20.83
2022-11-07T11:59:42.675Z,20.57
2022-11-07T12:02:28.240Z,20.63
2022-11-07T12:04:58.554Z,20.58
2022-11-07T12:07:25.541Z,21.77
2022-11-07T12:10:11.448Z,19.75
2022-11-07T12:12:44.630Z,21.55
2022-11-07T12:15:29.074Z,21.00
2022-11-07T12:18:02.025Z,19.10
2022-11-07T12:20:49.910Z,16.58
2022-11-07T12:23:23.030Z,19.33
2022-11-07T12:25:54.503Z,16.13
2022-11-07T12:28:40.977Z,15.68
2022-11-07T12:31:08.221Z,15.95
2022-11-07T12:33:35.803Z,15.30
2022-11-07T12:36:04.559Z,16.45
2022-11-07T12:38:43.434Z,18.92
2022-11-07T12:41:17.387Z,18.13
2022-11-07T12:44:04.801Z,16.60
2022-11-07T12:46:50.862Z,15.93
2022-11-07T12:49:36.783Z,15.93
2022-11-07T12:52:22.247Z,16.80
2022-11-07T12:58:20.884Z,13.68
2022-11-07T13:00:48.823Z,13.55
2022-11-07T13:03:22.018Z,16.02
2022-11-07T13:06:08.224Z,14.40
2022-11-07T13:08:54.180Z,13.82
2022-11-07T13:11:21.174Z,16.85
2022-11-07T13:14:06.706Z,13.47
2022-11-07T13:16:37.489Z,12.47
2022-11-07T13:19:21.628Z,15.55
2022-11-07T13:21:58.412Z,15.13
2022-11-07T13:24:25.634Z,13.40
2022-11-07T13:26:53.072Z,13.00
2022-11-07T13:29:25.620Z,14.07
2022-11-07T13:31:53.969Z,14.52
2022-11-07T13:34:21.043Z,16.23
2022-11-07T13:36:49.227Z,16.90
2022-11-07T13:39:16.572Z,11.70
2022-11-07T13:41:47.002Z,15.15
2022-11-07T13:44:21.045Z,12.60
2022-11-07T13:47:46.127Z,15.52
2022-11-07T13:50:24.742Z,17.05
2022-11-07T13:53:00.568Z,15.52
2022-11-07T13:55:48.993Z,20.30
2022-11-07T13:58:17.462Z,18.20
2022-11-07T14:00:44.521Z,15.35
2022-11-07T14:03:22.991Z,16.40
2022-11-07T14:05:50.041Z,18.92
2022-11-07T14:08:26.280Z,22.70
2022-11-07T14:10:53.635Z,23.43
2022-11-07T14:13:38.333Z,18.23
2022-11-07T14:16:18.727Z,18.73
